sensor_id;sensor_type;location;lat;lon;timestamp;pressure;altitude;pressure_sealevel;temperature;humidity
48800;BME280;34611;47.964;7.982;2022-12-26T00:05:57;96886.34;;;11.19;64.83
48800;BME280;34611;47.964;7.982;2022-12-26T00:12:58;96883.75;;;11.19;64.73
48800;BME280;34611;47.964;7.982;2022-12-26T00:19:58;96892.25;;;11.21;64.84
48800;BME280;34611;47.964;7.982;2022-12-26T00:26:58;96885.38;;;11.20;64.80
48800;BME280;34611;47.964;7.982;2022-12-26T00:33:59;96884.56;;;11.20;64.84
48800;BME280;34611;47.964;7.982;2022-12-26T00:40:59;96871.56;;;11.20;64.71
48800;BME280;34611;47.964;7.982;2022-12-26T00:47:59;96885.38;;;11.20;64.79
48800;BME280;34611;47.964;7.982;2022-12-26T00:55:00;96887.03;;;11.21;64.79
48800;BME280;34611;47.964;7.982;2022-12-26T01:02:00;96887.03;;;11.21;64.74
48800;BME280;34611;47.964;7.982;2022-12-26T01:09:00;96872.38;;;11.20;64.73
48800;BME280;34611;47.964;7.982;2022-12-26T01:16:01;96883.75;;;11.19;64.74
48800;BME280;34611;47.964;7.982;2022-12-26T01:23:01;96888.97;;;11.19;64.88
48800;BME280;34611;47.964;7.982;2022-12-26T01:30:01;96884.56;;;11.20;64.79
48800;BME280;34611;47.964;7.982;2022-12-26T01:37:02;96885.38;;;11.20;64.84
48800;BME280;34611;47.964;7.982;2022-12-26T01:44:04;96881.00;;;11.21;64.77
48800;BME280;34611;47.964;7.982;2022-12-26T01:51:04;96897.47;;;11.21;64.74
48800;BME280;34611;47.964;7.982;2022-12-26T01:58:10;96903.47;;;11.22;64.73
48800;BME280;34611;47.964;7.982;2022-12-26T02:05:11;96908.81;;;11.20;64.85
48800;BME280;34611;47.964;7.982;2022-12-26T02:12:32;96900.06;;;11.21;64.79
48800;BME280;34611;47.964;7.982;2022-12-26T02:19:54;96914.00;;;11.20;65.00
48800;BME280;34611;47.964;7.982;2022-12-26T02:41:15;96907.88;;;11.21;64.79
48800;BME280;34611;47.964;7.982;2022-12-26T02:55:21;96901.00;;;11.20;64.70
48800;BME280;34611;47.964;7.982;2022-12-26T03:10:23;96905.38;;;11.20;64.77
48800;BME280;34611;47.964;7.982;2022-12-26T03:17:46;96892.25;;;11.21;64.75
48800;BME280;34611;47.964;7.982;2022-12-26T03:24:48;96899.09;;;11.22;64.75
48800;BME280;34611;47.964;7.982;2022-12-26T03:32:09;96896.47;;;11.22;64.89
48800;BME280;34611;47.964;7.982;2022-12-26T03:46:20;96880.19;;;11.20;64.71
48800;BME280;34611;47.964;7.982;2022-12-26T03:53:54;96886.19;;;11.21;65.07
48800;BME280;34611;47.964;7.982;2022-12-26T04:01:17;96899.09;;;11.22;64.81
48800;BME280;34611;47.964;7.982;2022-12-26T04:08:42;96889.66;;;11.21;64.60
48800;BME280;34611;47.964;7.982;2022-12-26T04:16:04;96894.97;;;11.20;64.78
48800;BME280;34611;47.964;7.982;2022-12-26T04:23:33;96879.38;;;11.20;64.81
48800;BME280;34611;47.964;7.982;2022-12-26T04:30:55;96890.59;;;11.20;64.91
48800;BME280;34611;47.964;7.982;2022-12-26T04:38:18;96886.06;;;11.22;64.65
48800;BME280;34611;47.964;7.982;2022-12-26T04:45:39;96874.97;;;11.20;64.72
48800;BME280;34611;47.964;7.982;2022-12-26T04:52:40;96874.84;;;11.22;64.75
48800;BME280;34611;47.964;7.982;2022-12-26T04:59:58;96878.28;;;11.22;64.58
48800;BME280;34611;47.964;7.982;2022-12-26T05:06:59;96877.44;;;11.22;64.69
48800;BME280;34611;47.964;7.982;2022-12-26T05:14:19;96874.03;;;11.21;64.76
48800;BME280;34611;47.964;7.982;2022-12-26T05:21:19;96885.25;;;11.22;64.99
48800;BME280;34611;47.964;7.982;2022-12-26T05:28:38;96888.69;;;11.22;64.85
48800;BME280;34611;47.964;7.982;2022-12-26T05:35:41;96884.28;;;11.23;64.68
48800;BME280;34611;47.964;7.982;2022-12-26T05:42:42;96883.47;;;11.22;64.70
48800;BME280;34611;47.964;7.982;2022-12-26T05:49:42;96887.03;;;11.21;64.95
48800;BME280;34611;47.964;7.982;2022-12-26T05:56:42;96889.66;;;11.21;64.90
48800;BME280;34611;47.964;7.982;2022-12-26T06:03:44;96888.69;;;11.22;64.92
48800;BME280;34611;47.964;7.982;2022-12-26T06:10:46;96866.22;;;11.21;64.96
48800;BME280;34611;47.964;7.982;2022-12-26T06:17:46;96853.91;;;11.23;64.67
48800;BME280;34611;47.964;7.982;2022-12-26T06:24:47;96859.94;;;11.24;64.79
48800;BME280;34611;47.964;7.982;2022-12-26T06:31:47;96855.81;;;11.21;64.85
48800;BME280;34611;47.964;7.982;2022-12-26T06:38:47;96843.50;;;11.23;64.86
48800;BME280;34611;47.964;7.982;2022-12-26T06:45:57;96849.66;;;11.22;64.91
48800;BME280;34611;47.964;7.982;2022-12-26T06:52:57;96853.06;;;11.23;64.78
48800;BME280;34611;47.964;7.982;2022-12-26T06:59:57;96829.81;;;11.21;64.90
48800;BME280;34611;47.964;7.982;2022-12-26T07:06:57;96839.25;;;11.22;64.98
48800;BME280;34611;47.964;7.982;2022-12-26T07:13:58;96847.16;;;11.21;64.92
48800;BME280;34611;47.964;7.982;2022-12-26T07:20:58;96854.72;;;11.24;64.73
48800;BME280;34611;47.964;7.982;2022-12-26T07:27:59;96873.88;;;11.23;64.89
48800;BME280;34611;47.964;7.982;2022-12-26T07:34:59;96865.25;;;11.22;64.77
48800;BME280;34611;47.964;7.982;2022-12-26T07:42:00;96865.13;;;11.24;64.82
48800;BME280;34611;47.964;7.982;2022-12-26T07:49:00;96874.72;;;11.23;64.91
48800;BME280;34611;47.964;7.982;2022-12-26T07:56:00;96883.47;;;11.22;64.95
48800;BME280;34611;47.964;7.982;2022-12-26T08:03:01;96884.16;;;11.24;64.78
48800;BME280;34611;47.964;7.982;2022-12-26T08:10:01;96905.81;;;11.25;64.74
48800;BME280;34611;47.964;7.982;2022-12-26T08:17:01;96918.97;;;11.23;64.69
48800;BME280;34611;47.964;7.982;2022-12-26T08:24:02;96953.59;;;11.24;64.81
48800;BME280;34611;47.964;7.982;2022-12-26T08:31:06;96964.84;;;11.24;64.96
48800;BME280;34611;47.964;7.982;2022-12-26T08:38:06;96988.25;;;11.24;64.91
48800;BME280;34611;47.964;7.982;2022-12-26T08:45:07;97010.84;;;11.24;64.96
48800;BME280;34611;47.964;7.982;2022-12-26T08:52:07;97037.69;;;11.24;64.85
48800;BME280;34611;47.964;7.982;2022-12-26T08:59:07;97042.91;;;11.24;64.82
48800;BME280;34611;47.964;7.982;2022-12-26T09:06:08;97056.88;;;11.23;64.96
48800;BME280;34611;47.964;7.982;2022-12-26T09:13:08;97069.88;;;11.23;64.94
48800;BME280;34611;47.964;7.982;2022-12-26T09:20:09;97058.50;;;11.24;64.82
48800;BME280;34611;47.964;7.982;2022-12-26T09:27:09;97084.53;;;11.24;64.83
48800;BME280;34611;47.964;7.982;2022-12-26T09:34:10;97093.16;;;11.25;64.83
48800;BME280;34611;47.964;7.982;2022-12-26T09:48:16;97131.38;;;11.24;64.93
48800;BME280;34611;47.964;7.982;2022-12-26T10:02:24;97136.59;;;11.24;64.95
48800;BME280;34611;47.964;7.982;2022-12-26T10:16:59;97175.63;;;11.24;64.81
48800;BME280;34611;47.964;7.982;2022-12-26T10:24:14;97188.63;;;11.24;64.93
48800;BME280;34611;47.964;7.982;2022-12-26T10:31:21;97179.19;;;11.23;65.07
48800;BME280;34611;47.964;7.982;2022-12-26T10:38:35;97205.91;;;11.25;65.06
48800;BME280;34611;47.964;7.982;2022-12-26T10:52:56;97197.41;;;11.23;64.98
48800;BME280;34611;47.964;7.982;2022-12-26T10:59:57;97199.03;;;11.24;64.81
48800;BME280;34611;47.964;7.982;2022-12-26T11:06:57;97173.13;;;11.23;64.98
48800;BME280;34611;47.964;7.982;2022-12-26T11:13:58;97172.19;;;11.24;64.98
48800;BME280;34611;47.964;7.982;2022-12-26T11:28:33;97179.03;;;11.25;64.96
48800;BME280;34611;47.964;7.982;2022-12-26T11:35:34;97173.97;;;11.23;64.79
48800;BME280;34611;47.964;7.982;2022-12-26T11:42:36;97150.41;;;11.25;65.02
48800;BME280;34611;47.964;7.982;2022-12-26T11:49:44;97144.38;;;11.24;64.83
48800;BME280;34611;47.964;7.982;2022-12-26T11:56:45;97173.00;;;11.24;64.87
48800;BME280;34611;47.964;7.982;2022-12-26T12:03:46;97178.22;;;11.24;64.81
48800;BME280;34611;47.964;7.982;2022-12-26T12:10:53;97184.13;;;11.26;65.00
48800;BME280;34611;47.964;7.982;2022-12-26T12:18:04;97175.50;;;11.26;64.79
48800;BME280;34611;47.964;7.982;2022-12-26T12:25:21;97177.28;;;11.25;65.07
48800;BME280;34611;47.964;7.982;2022-12-26T12:32:30;97175.63;;;11.24;64.85
48800;BME280;34611;47.964;7.982;2022-12-26T12:39:54;97167.81;;;11.24;64.99
48800;BME280;34611;47.964;7.982;2022-12-26T12:47:03;97147.97;;;11.23;65.09
48800;BME280;34611;47.964;7.982;2022-12-26T13:01:28;97167.81;;;11.24;65.03
48800;BME280;34611;47.964;7.982;2022-12-26T13:15:36;97177.41;;;11.24;64.93
48800;BME280;34611;47.964;7.982;2022-12-26T13:22:39;97154.91;;;11.23;65.07
48800;BME280;34611;47.964;7.982;2022-12-26T13:29:58;97115.75;;;11.24;65.07
48800;BME280;34611;47.964;7.982;2022-12-26T13:36:58;97133.88;;;11.26;64.98
48800;BME280;34611;47.964;7.982;2022-12-26T13:44:03;97160.00;;;11.24;65.02
48800;BME280;34611;47.964;7.982;2022-12-26T13:51:04;97134.94;;;11.23;64.99
48800;BME280;34611;47.964;7.982;2022-12-26T13:58:07;97143.44;;;11.25;64.97
48800;BME280;34611;47.964;7.982;2022-12-26T14:19:42;97121.94;;;11.23;65.08
48800;BME280;34611;47.964;7.982;2022-12-26T14:33:50;97113.97;;;11.25;65.05
48800;BME280;34611;47.964;7.982;2022-12-26T15:02:32;97113.16;;;11.24;64.99
48800;BME280;34611;47.964;7.982;2022-12-26T15:38:39;97098.50;;;11.23;65.01
48800;BME280;34611;47.964;7.982;2022-12-26T16:07:32;97129.47;;;11.26;64.83
48800;BME280;34611;47.964;7.982;2022-12-26T16:14:35;97119.19;;;11.25;64.90
48800;BME280;34611;47.964;7.982;2022-12-26T16:21:37;97131.25;;;11.26;64.95
48800;BME280;34611;47.964;7.982;2022-12-26T16:28:56;97140.69;;;11.27;65.11
48800;BME280;34611;47.964;7.982;2022-12-26T16:35:57;97132.91;;;11.27;65.04
48800;BME280;34611;47.964;7.982;2022-12-26T16:43:03;97128.66;;;11.26;64.81
48800;BME280;34611;47.964;7.982;2022-12-26T16:50:04;97128.53;;;11.27;65.07
48800;BME280;34611;47.964;7.982;2022-12-26T16:57:06;97107.03;;;11.25;65.20
48800;BME280;34611;47.964;7.982;2022-12-26T17:11:11;97142.50;;;11.26;64.99
48800;BME280;34611;47.964;7.982;2022-12-26T17:25:30;97138.25;;;11.25;65.15
48800;BME280;34611;47.964;7.982;2022-12-26T17:32:39;97132.06;;;11.26;65.09
48800;BME280;34611;47.964;7.982;2022-12-26T17:39:42;97158.22;;;11.25;65.13
48800;BME280;34611;47.964;7.982;2022-12-26T17:46:42;97176.31;;;11.26;64.89
48800;BME280;34611;47.964;7.982;2022-12-26T17:53:46;97177.28;;;11.25;65.08
48800;BME280;34611;47.964;7.982;2022-12-26T18:00:47;97168.63;;;11.25;64.86
48800;BME280;34611;47.964;7.982;2022-12-26T18:07:48;97169.31;;;11.27;65.12
48800;BME280;34611;47.964;7.982;2022-12-26T18:14:49;97172.78;;;11.27;65.29
48800;BME280;34611;47.964;7.982;2022-12-26T18:21:49;97181.41;;;11.28;65.31
48800;BME280;34611;47.964;7.982;2022-12-26T18:28:50;97192.75;;;11.27;65.23
48800;BME280;34611;47.964;7.982;2022-12-26T18:35:50;97197.84;;;11.28;65.30
48800;BME280;34611;47.964;7.982;2022-12-26T18:42:51;97220.31;;;11.29;65.33
48800;BME280;34611;47.964;7.982;2022-12-26T18:49:51;97301.13;;;11.28;65.33
48800;BME280;34611;47.964;7.982;2022-12-26T18:56:51;97308.94;;;11.28;65.50
48800;BME280;34611;47.964;7.982;2022-12-26T19:03:52;97325.38;;;11.28;65.36
48800;BME280;34611;47.964;7.982;2022-12-26T19:10:52;97336.75;;;11.27;65.28
48800;BME280;34611;47.964;7.982;2022-12-26T19:17:53;97337.66;;;11.26;65.39
48800;BME280;34611;47.964;7.982;2022-12-26T19:24:53;97347.84;;;11.29;65.34
48800;BME280;34611;47.964;7.982;2022-12-26T19:31:54;97351.38;;;11.28;65.27
48800;BME280;34611;47.964;7.982;2022-12-26T19:38:57;97356.59;;;11.28;65.52
48800;BME280;34611;47.964;7.982;2022-12-26T19:46:01;97361.81;;;11.28;65.38
48800;BME280;34611;47.964;7.982;2022-12-26T19:53:01;97387.81;;;11.28;65.47
48800;BME280;34611;47.964;7.982;2022-12-26T20:00:02;97374.94;;;11.27;65.53
48800;BME280;34611;47.964;7.982;2022-12-26T20:07:12;97378.13;;;11.30;65.38
48800;BME280;34611;47.964;7.982;2022-12-26T20:14:13;97384.03;;;11.32;65.40
48800;BME280;34611;47.964;7.982;2022-12-26T20:21:14;97389.34;;;11.31;65.48
48800;BME280;34611;47.964;7.982;2022-12-26T20:28:15;97399.91;;;11.29;65.62
48800;BME280;34611;47.964;7.982;2022-12-26T20:35:15;97412.06;;;11.29;65.57
48800;BME280;34611;47.964;7.982;2022-12-26T20:42:15;97411.97;;;11.30;65.38
48800;BME280;34611;47.964;7.982;2022-12-26T20:49:16;97436.34;;;11.29;65.41
48800;BME280;34611;47.964;7.982;2022-12-26T20:56:16;97453.72;;;11.29;65.45
48800;BME280;34611;47.964;7.982;2022-12-26T21:03:16;97473.50;;;11.31;65.46
48800;BME280;34611;47.964;7.982;2022-12-26T21:10:16;97478.00;;;11.29;65.46
48800;BME280;34611;47.964;7.982;2022-12-26T21:17:17;97507.53;;;11.28;65.56
48800;BME280;34611;47.964;7.982;2022-12-26T21:24:27;97523.16;;;11.28;65.63
48800;BME280;34611;47.964;7.982;2022-12-26T21:31:28;97537.72;;;11.31;65.55
48800;BME280;34611;47.964;7.982;2022-12-26T21:38:29;97547.31;;;11.30;65.70
48800;BME280;34611;47.964;7.982;2022-12-26T21:45:29;97571.69;;;11.29;65.70
48800;BME280;34611;47.964;7.982;2022-12-26T21:52:29;97583.75;;;11.30;65.55
48800;BME280;34611;47.964;7.982;2022-12-26T21:59:30;97601.03;;;11.31;65.72
48800;BME280;34611;47.964;7.982;2022-12-26T22:06:49;97614.06;;;11.31;65.94
48800;BME280;34611;47.964;7.982;2022-12-26T22:13:49;97624.31;;;11.33;65.78
48800;BME280;34611;47.964;7.982;2022-12-26T22:20:50;97623.75;;;11.29;65.68
48800;BME280;34611;47.964;7.982;2022-12-26T22:27:50;97629.78;;;11.30;65.62
48800;BME280;34611;47.964;7.982;2022-12-26T22:34:50;97640.19;;;11.30;65.63
48800;BME280;34611;47.964;7.982;2022-12-26T22:41:51;97647.03;;;11.31;65.66
48800;BME280;34611;47.964;7.982;2022-12-26T22:48:51;97646.31;;;11.29;65.62
48800;BME280;34611;47.964;7.982;2022-12-26T22:55:57;97655.91;;;11.28;65.74
48800;BME280;34611;47.964;7.982;2022-12-26T23:02:58;97673.91;;;11.31;65.51
48800;BME280;34611;47.964;7.982;2022-12-26T23:09:58;97686.06;;;11.31;65.60
48800;BME280;34611;47.964;7.982;2022-12-26T23:16:59;97693.06;;;11.30;65.43
48800;BME280;34611;47.964;7.982;2022-12-26T23:24:01;97713.06;;;11.30;65.41
48800;BME280;34611;47.964;7.982;2022-12-26T23:31:02;97718.28;;;11.30;65.52
48800;BME280;34611;47.964;7.982;2022-12-26T23:38:02;97739.00;;;11.31;65.42
48800;BME280;34611;47.964;7.982;2022-12-26T23:45:02;97743.47;;;11.29;65.45
48800;BME280;34611;47.964;7.982;2022-12-26T23:52:03;97746.06;;;11.29;65.52
48800;BME280;34611;47.964;7.982;2022-12-26T23:59:03;97751.16;;;11.31;65.44
